Cowlington, Oklahoma
Current Conditions -  °F | °C
As of 11:15 AM on Tuesday 21 Oct 2014 (Local Time) from KGZL Reporting Station
Few Clouds Few Clouds  
Wind Chill: 23°   Ceiling: Unl
Heat Index: 23°   Visibility: 10mi
Dew Point: 15°   Wind: 3mph
Humidity: 61%   Direction: 190°S
Pressure: 30.14"   Gusts: NA
Location:  35.2597°N, 94.8795°W
Report Text: KGZL 211615Z AUTO 19003KT 10SM FEW060 23/15 A3014 RMK AO2
Loading
Personal Weather Stations






























Interactive Weather Map
Tropical Storm Tracking
New forecast layout! Learn more

10-Day Weather Forecast

Advertisements
Track Severe Weather on mobile